sensor_id;sensor_type;location;lat;lon;timestamp;pressure;altitude;pressure_sealevel;temperature;humidity
71248;BME280;73325;51.138;6.950;2024-02-04T00:00:44;101887.00;;;10.50;100.00
71248;BME280;73325;51.138;6.950;2024-02-04T00:03:15;101885.00;;;10.49;100.00
71248;BME280;73325;51.138;6.950;2024-02-04T00:05:44;101885.00;;;10.48;100.00
71248;BME280;73325;51.138;6.950;2024-02-04T00:08:14;101885.00;;;10.48;100.00
71248;BME280;73325;51.138;6.950;2024-02-04T00:10:44;101886.00;;;10.48;100.00
71248;BME280;73325;51.138;6.950;2024-02-04T00:13:14;101887.00;;;10.47;100.00
71248;BME280;73325;51.138;6.950;2024-02-04T00:15:44;101888.00;;;10.47;100.00
71248;BME280;73325;51.138;6.950;2024-02-04T00:18:14;101891.00;;;10.48;100.00
71248;BME280;73325;51.138;6.950;2024-02-04T00:20:44;101890.00;;;10.48;100.00
71248;BME280;73325;51.138;6.950;2024-02-04T00:23:14;101886.00;;;10.48;100.00
71248;BME280;73325;51.138;6.950;2024-02-04T00:25:44;101885.00;;;10.48;100.00
71248;BME280;73325;51.138;6.950;2024-02-04T00:28:14;101882.00;;;10.48;100.00
71248;BME280;73325;51.138;6.950;2024-02-04T00:30:44;101881.00;;;10.48;100.00
71248;BME280;73325;51.138;6.950;2024-02-04T00:33:14;101880.00;;;10.49;100.00
71248;BME280;73325;51.138;6.950;2024-02-04T00:35:45;101880.00;;;10.49;100.00
71248;BME280;73325;51.138;6.950;2024-02-04T00:38:15;101879.00;;;10.49;100.00
71248;BME280;73325;51.138;6.950;2024-02-04T00:40:45;101877.00;;;10.50;100.00
71248;BME280;73325;51.138;6.950;2024-02-04T00:43:14;101876.00;;;10.50;100.00
71248;BME280;73325;51.138;6.950;2024-02-04T00:45:45;101875.00;;;10.51;100.00
71248;BME280;73325;51.138;6.950;2024-02-04T00:48:15;101875.00;;;10.52;100.00
71248;BME280;73325;51.138;6.950;2024-02-04T00:50:45;101875.00;;;10.52;100.00
71248;BME280;73325;51.138;6.950;2024-02-04T00:53:15;101875.00;;;10.53;100.00
71248;BME280;73325;51.138;6.950;2024-02-04T00:55:45;101873.00;;;10.54;100.00
71248;BME280;73325;51.138;6.950;2024-02-04T00:58:15;101872.00;;;10.54;100.00
71248;BME280;73325;51.138;6.950;2024-02-04T01:00:45;101872.00;;;10.54;100.00
71248;BME280;73325;51.138;6.950;2024-02-04T01:03:15;101872.00;;;10.55;100.00
71248;BME280;73325;51.138;6.950;2024-02-04T01:05:45;101870.00;;;10.55;100.00
71248;BME280;73325;51.138;6.950;2024-02-04T01:08:15;101870.00;;;10.55;100.00
71248;BME280;73325;51.138;6.950;2024-02-04T01:10:45;101871.00;;;10.55;100.00
71248;BME280;73325;51.138;6.950;2024-02-04T01:13:15;101874.00;;;10.56;100.00
71248;BME280;73325;51.138;6.950;2024-02-04T01:15:45;101875.00;;;10.56;100.00
71248;BME280;73325;51.138;6.950;2024-02-04T01:18:15;101874.00;;;10.56;100.00
71248;BME280;73325;51.138;6.950;2024-02-04T01:20:45;101873.00;;;10.57;100.00
71248;BME280;73325;51.138;6.950;2024-02-04T01:23:15;101871.00;;;10.57;100.00
71248;BME280;73325;51.138;6.950;2024-02-04T01:25:45;101870.00;;;10.57;100.00
71248;BME280;73325;51.138;6.950;2024-02-04T01:28:15;101868.00;;;10.58;100.00
71248;BME280;73325;51.138;6.950;2024-02-04T01:30:45;101869.00;;;10.58;100.00
71248;BME280;73325;51.138;6.950;2024-02-04T01:33:15;101868.00;;;10.58;100.00
71248;BME280;73325;51.138;6.950;2024-02-04T01:35:45;101869.00;;;10.59;100.00
71248;BME280;73325;51.138;6.950;2024-02-04T01:38:15;101869.00;;;10.59;100.00
71248;BME280;73325;51.138;6.950;2024-02-04T01:40:45;101871.00;;;10.59;100.00
71248;BME280;73325;51.138;6.950;2024-02-04T01:43:15;101873.00;;;10.60;100.00
71248;BME280;73325;51.138;6.950;2024-02-04T01:45:45;101872.00;;;10.60;100.00
71248;BME280;73325;51.138;6.950;2024-02-04T01:48:15;101874.00;;;10.60;100.00
71248;BME280;73325;51.138;6.950;2024-02-04T01:50:46;101874.00;;;10.60;100.00
71248;BME280;73325;51.138;6.950;2024-02-04T01:53:15;101871.00;;;10.60;100.00
71248;BME280;73325;51.138;6.950;2024-02-04T01:55:45;101870.00;;;10.60;100.00
71248;BME280;73325;51.138;6.950;2024-02-04T01:58:16;101867.00;;;10.61;100.00
71248;BME280;73325;51.138;6.950;2024-02-04T02:00:48;101865.00;;;10.61;100.00
71248;BME280;73325;51.138;6.950;2024-02-04T02:03:17;101863.00;;;10.61;100.00
71248;BME280;73325;51.138;6.950;2024-02-04T02:05:47;101862.00;;;10.61;100.00
71248;BME280;73325;51.138;6.950;2024-02-04T02:08:17;101861.00;;;10.62;100.00
71248;BME280;73325;51.138;6.950;2024-02-04T02:10:48;101859.00;;;10.62;100.00
71248;BME280;73325;51.138;6.950;2024-02-04T02:13:27;101858.00;;;10.63;100.00
71248;BME280;73325;51.138;6.950;2024-02-04T02:15:50;101854.00;;;10.64;100.00
71248;BME280;73325;51.138;6.950;2024-02-04T02:18:29;101852.00;;;10.65;100.00
71248;BME280;73325;51.138;6.950;2024-02-04T02:23:22;101851.00;;;10.66;100.00
71248;BME280;73325;51.138;6.950;2024-02-04T02:25:51;101849.00;;;10.67;100.00
71248;BME280;73325;51.138;6.950;2024-02-04T02:28:19;101849.00;;;10.67;100.00
71248;BME280;73325;51.138;6.950;2024-02-04T02:30:49;101847.00;;;10.68;100.00
71248;BME280;73325;51.138;6.950;2024-02-04T02:33:19;101846.00;;;10.68;100.00
71248;BME280;73325;51.138;6.950;2024-02-04T02:35:54;101845.00;;;10.69;100.00
71248;BME280;73325;51.138;6.950;2024-02-04T02:38:35;101845.00;;;10.69;100.00
71248;BME280;73325;51.138;6.950;2024-02-04T02:41:04;101845.00;;;10.70;100.00
71248;BME280;73325;51.138;6.950;2024-02-04T02:43:21;101844.00;;;10.71;100.00
71248;BME280;73325;51.138;6.950;2024-02-04T02:45:52;101844.00;;;10.71;100.00
71248;BME280;73325;51.138;6.950;2024-02-04T02:48:22;101844.00;;;10.72;100.00
71248;BME280;73325;51.138;6.950;2024-02-04T02:50:53;101844.00;;;10.73;100.00
71248;BME280;73325;51.138;6.950;2024-02-04T02:53:22;101845.00;;;10.73;100.00
71248;BME280;73325;51.138;6.950;2024-02-04T02:55:52;101846.00;;;10.74;100.00
71248;BME280;73325;51.138;6.950;2024-02-04T02:58:22;101846.00;;;10.74;100.00
71248;BME280;73325;51.138;6.950;2024-02-04T03:00:52;101846.00;;;10.75;100.00
71248;BME280;73325;51.138;6.950;2024-02-04T03:03:22;101846.00;;;10.76;100.00
71248;BME280;73325;51.138;6.950;2024-02-04T03:05:52;101847.00;;;10.76;100.00
71248;BME280;73325;51.138;6.950;2024-02-04T03:08:22;101847.00;;;10.77;100.00
71248;BME280;73325;51.138;6.950;2024-02-04T03:10:52;101846.00;;;10.77;100.00
71248;BME280;73325;51.138;6.950;2024-02-04T03:13:22;101844.00;;;10.77;100.00
71248;BME280;73325;51.138;6.950;2024-02-04T03:15:52;101843.00;;;10.77;100.00
71248;BME280;73325;51.138;6.950;2024-02-04T03:18:22;101842.00;;;10.78;100.00
71248;BME280;73325;51.138;6.950;2024-02-04T03:20:54;101841.00;;;10.78;100.00
71248;BME280;73325;51.138;6.950;2024-02-04T03:23:23;101838.00;;;10.78;100.00
71248;BME280;73325;51.138;6.950;2024-02-04T03:25:53;101835.00;;;10.78;100.00
71248;BME280;73325;51.138;6.950;2024-02-04T03:28:23;101835.00;;;10.79;100.00
71248;BME280;73325;51.138;6.950;2024-02-04T03:30:53;101835.00;;;10.79;100.00
71248;BME280;73325;51.138;6.950;2024-02-04T03:33:23;101835.00;;;10.80;100.00
71248;BME280;73325;51.138;6.950;2024-02-04T03:35:53;101834.00;;;10.80;100.00
71248;BME280;73325;51.138;6.950;2024-02-04T03:38:23;101831.00;;;10.81;100.00
71248;BME280;73325;51.138;6.950;2024-02-04T03:40:54;101828.00;;;10.81;100.00
71248;BME280;73325;51.138;6.950;2024-02-04T03:43:24;101827.00;;;10.81;100.00
71248;BME280;73325;51.138;6.950;2024-02-04T03:45:54;101826.00;;;10.81;100.00
71248;BME280;73325;51.138;6.950;2024-02-04T03:48:24;101826.00;;;10.81;100.00
71248;BME280;73325;51.138;6.950;2024-02-04T03:50:54;101826.00;;;10.81;100.00
71248;BME280;73325;51.138;6.950;2024-02-04T03:53:24;101826.00;;;10.81;100.00
71248;BME280;73325;51.138;6.950;2024-02-04T03:55:54;101823.00;;;10.81;100.00
71248;BME280;73325;51.138;6.950;2024-02-04T03:58:24;101821.00;;;10.82;100.00
71248;BME280;73325;51.138;6.950;2024-02-04T04:00:54;101820.00;;;10.82;100.00
71248;BME280;73325;51.138;6.950;2024-02-04T04:03:24;101820.00;;;10.83;100.00
71248;BME280;73325;51.138;6.950;2024-02-04T04:05:54;101821.00;;;10.84;100.00
71248;BME280;73325;51.138;6.950;2024-02-04T04:08:26;101824.00;;;10.85;100.00
71248;BME280;73325;51.138;6.950;2024-02-04T04:10:54;101824.00;;;10.85;100.00
71248;BME280;73325;51.138;6.950;2024-02-04T04:13:24;101824.00;;;10.86;100.00
71248;BME280;73325;51.138;6.950;2024-02-04T04:15:54;101822.00;;;10.87;100.00
71248;BME280;73325;51.138;6.950;2024-02-04T04:18:24;101824.00;;;10.88;100.00
71248;BME280;73325;51.138;6.950;2024-02-04T04:20:54;101823.00;;;10.88;100.00
71248;BME280;73325;51.138;6.950;2024-02-04T04:23:24;101822.00;;;10.88;100.00
71248;BME280;73325;51.138;6.950;2024-02-04T04:25:54;101825.00;;;10.88;100.00
71248;BME280;73325;51.138;6.950;2024-02-04T04:28:24;101828.00;;;10.88;100.00
71248;BME280;73325;51.138;6.950;2024-02-04T04:30:54;101828.00;;;10.88;100.00
71248;BME280;73325;51.138;6.950;2024-02-04T04:33:24;101828.00;;;10.88;100.00
71248;BME280;73325;51.138;6.950;2024-02-04T04:35:54;101831.00;;;10.88;100.00
71248;BME280;73325;51.138;6.950;2024-02-04T04:38:24;101834.00;;;10.88;100.00
71248;BME280;73325;51.138;6.950;2024-02-04T04:40:54;101837.00;;;10.88;100.00
71248;BME280;73325;51.138;6.950;2024-02-04T04:43:24;101841.00;;;10.88;100.00
71248;BME280;73325;51.138;6.950;2024-02-04T04:45:55;101847.00;;;10.89;100.00
71248;BME280;73325;51.138;6.950;2024-02-04T04:48:24;101853.00;;;10.89;100.00
71248;BME280;73325;51.138;6.950;2024-02-04T04:50:54;101856.00;;;10.89;100.00
71248;BME280;73325;51.138;6.950;2024-02-04T04:53:24;101858.00;;;10.89;100.00
71248;BME280;73325;51.138;6.950;2024-02-04T04:55:54;101858.00;;;10.89;100.00
71248;BME280;73325;51.138;6.950;2024-02-04T04:58:24;101856.00;;;10.90;100.00
71248;BME280;73325;51.138;6.950;2024-02-04T05:00:54;101855.00;;;10.90;100.00
71248;BME280;73325;51.138;6.950;2024-02-04T05:03:24;101851.00;;;10.89;100.00
71248;BME280;73325;51.138;6.950;2024-02-04T05:05:54;101842.00;;;10.89;100.00
71248;BME280;73325;51.138;6.950;2024-02-04T05:08:24;101837.00;;;10.88;100.00
71248;BME280;73325;51.138;6.950;2024-02-04T05:10:54;101837.00;;;10.87;100.00
71248;BME280;73325;51.138;6.950;2024-02-04T05:13:24;101837.00;;;10.86;100.00
71248;BME280;73325;51.138;6.950;2024-02-04T05:15:55;101838.00;;;10.86;100.00
71248;BME280;73325;51.138;6.950;2024-02-04T05:18:25;101840.00;;;10.85;100.00
71248;BME280;73325;51.138;6.950;2024-02-04T05:20:54;101841.00;;;10.86;100.00
71248;BME280;73325;51.138;6.950;2024-02-04T05:23:25;101841.00;;;10.86;100.00
71248;BME280;73325;51.138;6.950;2024-02-04T05:25:55;101841.00;;;10.86;100.00
71248;BME280;73325;51.138;6.950;2024-02-04T05:28:25;101838.00;;;10.85;100.00
71248;BME280;73325;51.138;6.950;2024-02-04T05:30:55;101836.00;;;10.85;100.00
71248;BME280;73325;51.138;6.950;2024-02-04T05:33:25;101834.00;;;10.84;100.00
71248;BME280;73325;51.138;6.950;2024-02-04T05:35:55;101834.00;;;10.84;100.00
71248;BME280;73325;51.138;6.950;2024-02-04T05:38:25;101833.00;;;10.83;100.00
71248;BME280;73325;51.138;6.950;2024-02-04T05:40:55;101833.00;;;10.82;100.00
71248;BME280;73325;51.138;6.950;2024-02-04T05:43:25;101833.00;;;10.81;100.00
71248;BME280;73325;51.138;6.950;2024-02-04T05:45:55;101829.00;;;10.81;100.00
71248;BME280;73325;51.138;6.950;2024-02-04T05:48:25;101826.00;;;10.80;100.00
71248;BME280;73325;51.138;6.950;2024-02-04T05:50:55;101823.00;;;10.80;100.00
71248;BME280;73325;51.138;6.950;2024-02-04T05:53:25;101821.00;;;10.80;100.00
71248;BME280;73325;51.138;6.950;2024-02-04T05:55:55;101817.00;;;10.79;100.00
71248;BME280;73325;51.138;6.950;2024-02-04T05:58:25;101812.00;;;10.78;100.00
71248;BME280;73325;51.138;6.950;2024-02-04T06:00:55;101806.00;;;10.78;100.00
71248;BME280;73325;51.138;6.950;2024-02-04T06:03:25;101798.00;;;10.78;100.00
71248;BME280;73325;51.138;6.950;2024-02-04T06:05:55;101795.00;;;10.77;100.00
71248;BME280;73325;51.138;6.950;2024-02-04T06:08:25;101793.00;;;10.76;100.00
71248;BME280;73325;51.138;6.950;2024-02-04T06:10:55;101791.00;;;10.76;100.00
71248;BME280;73325;51.138;6.950;2024-02-04T06:13:25;101788.00;;;10.76;100.00
71248;BME280;73325;51.138;6.950;2024-02-04T06:15:55;101786.00;;;10.75;100.00
71248;BME280;73325;51.138;6.950;2024-02-04T06:18:25;101785.00;;;10.75;100.00
71248;BME280;73325;51.138;6.950;2024-02-04T06:20:55;101785.00;;;10.75;100.00
71248;BME280;73325;51.138;6.950;2024-02-04T06:23:25;101785.00;;;10.75;100.00
71248;BME280;73325;51.138;6.950;2024-02-04T06:25:55;101786.00;;;10.76;100.00
71248;BME280;73325;51.138;6.950;2024-02-04T06:28:26;101787.00;;;10.76;100.00
71248;BME280;73325;51.138;6.950;2024-02-04T06:30:55;101787.00;;;10.77;100.00
71248;BME280;73325;51.138;6.950;2024-02-04T06:33:25;101785.00;;;10.77;100.00
71248;BME280;73325;51.138;6.950;2024-02-04T06:35:55;101783.00;;;10.78;100.00
71248;BME280;73325;51.138;6.950;2024-02-04T06:38:25;101781.00;;;10.78;100.00
71248;BME280;73325;51.138;6.950;2024-02-04T06:40:55;101780.00;;;10.79;100.00
71248;BME280;73325;51.138;6.950;2024-02-04T06:43:25;101777.00;;;10.79;100.00
71248;BME280;73325;51.138;6.950;2024-02-04T06:45:55;101774.00;;;10.79;100.00
71248;BME280;73325;51.138;6.950;2024-02-04T06:48:25;101770.00;;;10.79;100.00
71248;BME280;73325;51.138;6.950;2024-02-04T06:50:55;101769.00;;;10.80;100.00
71248;BME280;73325;51.138;6.950;2024-02-04T06:53:25;101767.00;;;10.80;100.00
71248;BME280;73325;51.138;6.950;2024-02-04T06:55:55;101767.00;;;10.80;100.00
71248;BME280;73325;51.138;6.950;2024-02-04T06:58:25;101767.00;;;10.80;100.00
71248;BME280;73325;51.138;6.950;2024-02-04T07:00:56;101767.00;;;10.81;100.00
71248;BME280;73325;51.138;6.950;2024-02-04T07:03:26;101767.00;;;10.81;100.00
71248;BME280;73325;51.138;6.950;2024-02-04T07:05:56;101765.00;;;10.81;100.00
71248;BME280;73325;51.138;6.950;2024-02-04T07:08:29;101762.00;;;10.82;100.00
71248;BME280;73325;51.138;6.950;2024-02-04T07:10:56;101758.00;;;10.82;100.00
71248;BME280;73325;51.138;6.950;2024-02-04T07:13:26;101755.00;;;10.83;100.00
71248;BME280;73325;51.138;6.950;2024-02-04T07:15:56;101753.00;;;10.83;100.00
71248;BME280;73325;51.138;6.950;2024-02-04T07:18:26;101752.00;;;10.84;100.00
71248;BME280;73325;51.138;6.950;2024-02-04T07:20:56;101752.00;;;10.85;100.00
71248;BME280;73325;51.138;6.950;2024-02-04T07:23:26;101753.00;;;10.86;100.00
71248;BME280;73325;51.138;6.950;2024-02-04T07:25:56;101753.00;;;10.86;100.00
71248;BME280;73325;51.138;6.950;2024-02-04T07:28:26;101754.00;;;10.87;100.00
71248;BME280;73325;51.138;6.950;2024-02-04T07:30:56;101755.00;;;10.87;100.00
71248;BME280;73325;51.138;6.950;2024-02-04T07:33:26;101757.00;;;10.88;100.00
71248;BME280;73325;51.138;6.950;2024-02-04T07:35:56;101761.00;;;10.88;100.00
71248;BME280;73325;51.138;6.950;2024-02-04T07:38:26;101765.00;;;10.88;100.00
71248;BME280;73325;51.138;6.950;2024-02-04T07:40:56;101767.00;;;10.89;100.00
71248;BME280;73325;51.138;6.950;2024-02-04T07:43:26;101769.00;;;10.89;100.00
71248;BME280;73325;51.138;6.950;2024-02-04T07:45:56;101770.00;;;10.89;100.00
71248;BME280;73325;51.138;6.950;2024-02-04T07:48:26;101771.00;;;10.89;100.00
71248;BME280;73325;51.138;6.950;2024-02-04T07:50:56;101773.00;;;10.89;100.00
71248;BME280;73325;51.138;6.950;2024-02-04T07:53:26;101774.00;;;10.89;100.00
71248;BME280;73325;51.138;6.950;2024-02-04T07:55:58;101775.00;;;10.89;100.00
71248;BME280;73325;51.138;6.950;2024-02-04T07:58:27;101774.00;;;10.89;100.00
71248;BME280;73325;51.138;6.950;2024-02-04T08:00:57;101773.00;;;10.90;100.00
71248;BME280;73325;51.138;6.950;2024-02-04T08:03:27;101771.00;;;10.90;100.00
71248;BME280;73325;51.138;6.950;2024-02-04T08:05:57;101770.00;;;10.91;100.00
71248;BME280;73325;51.138;6.950;2024-02-04T08:08:27;101769.00;;;10.91;100.00
71248;BME280;73325;51.138;6.950;2024-02-04T08:10:57;101768.00;;;10.91;100.00
71248;BME280;73325;51.138;6.950;2024-02-04T08:13:27;101768.00;;;10.91;100.00
71248;BME280;73325;51.138;6.950;2024-02-04T08:15:57;101766.00;;;10.91;100.00
71248;BME280;73325;51.138;6.950;2024-02-04T08:18:27;101765.00;;;10.92;100.00
71248;BME280;73325;51.138;6.950;2024-02-04T08:20:57;101765.00;;;10.92;100.00
71248;BME280;73325;51.138;6.950;2024-02-04T08:23:27;101763.00;;;10.92;100.00
71248;BME280;73325;51.138;6.950;2024-02-04T08:25:57;101764.00;;;10.93;100.00
71248;BME280;73325;51.138;6.950;2024-02-04T08:28:27;101765.00;;;10.94;100.00
71248;BME280;73325;51.138;6.950;2024-02-04T08:30:57;101766.00;;;10.95;100.00
71248;BME280;73325;51.138;6.950;2024-02-04T08:33:27;101770.00;;;10.96;100.00
71248;BME280;73325;51.138;6.950;2024-02-04T08:35:57;101773.00;;;10.96;100.00
71248;BME280;73325;51.138;6.950;2024-02-04T08:38:27;101775.00;;;10.97;100.00
71248;BME280;73325;51.138;6.950;2024-02-04T08:40:57;101778.00;;;10.97;100.00
71248;BME280;73325;51.138;6.950;2024-02-04T08:43:27;101777.00;;;10.98;100.00
71248;BME280;73325;51.138;6.950;2024-02-04T08:45:57;101777.00;;;10.98;100.00
71248;BME280;73325;51.138;6.950;2024-02-04T08:48:27;101776.00;;;10.99;100.00
71248;BME280;73325;51.138;6.950;2024-02-04T08:50:57;101775.00;;;11.00;100.00
71248;BME280;73325;51.138;6.950;2024-02-04T08:53:27;101773.00;;;11.01;100.00
71248;BME280;73325;51.138;6.950;2024-02-04T08:55:57;101772.00;;;11.03;100.00
71248;BME280;73325;51.138;6.950;2024-02-04T08:58:27;101769.00;;;11.06;100.00
71248;BME280;73325;51.138;6.950;2024-02-04T09:00:59;101768.00;;;11.08;100.00
71248;BME280;73325;51.138;6.950;2024-02-04T09:03:28;101769.00;;;11.11;100.00
71248;BME280;73325;51.138;6.950;2024-02-04T09:05:58;101770.00;;;11.14;100.00
71248;BME280;73325;51.138;6.950;2024-02-04T09:08:28;101771.00;;;11.16;100.00
71248;BME280;73325;51.138;6.950;2024-02-04T09:10:58;101770.00;;;11.18;100.00
71248;BME280;73325;51.138;6.950;2024-02-04T09:13:28;101772.00;;;11.19;100.00
71248;BME280;73325;51.138;6.950;2024-02-04T09:15:58;101770.00;;;11.21;100.00
71248;BME280;73325;51.138;6.950;2024-02-04T09:18:28;101771.00;;;11.21;100.00
71248;BME280;73325;51.138;6.950;2024-02-04T09:20:58;101771.00;;;11.22;100.00
71248;BME280;73325;51.138;6.950;2024-02-04T09:23:28;101771.00;;;11.23;100.00
71248;BME280;73325;51.138;6.950;2024-02-04T09:25:58;101774.00;;;11.24;100.00
71248;BME280;73325;51.138;6.950;2024-02-04T09:28:28;101777.00;;;11.24;100.00
71248;BME280;73325;51.138;6.950;2024-02-04T09:30:59;101779.00;;;11.24;100.00
71248;BME280;73325;51.138;6.950;2024-02-04T09:33:29;101780.00;;;11.25;100.00
71248;BME280;73325;51.138;6.950;2024-02-04T09:35:59;101781.00;;;11.25;100.00
71248;BME280;73325;51.138;6.950;2024-02-04T09:38:29;101781.00;;;11.25;100.00
71248;BME280;73325;51.138;6.950;2024-02-04T09:41:00;101778.00;;;11.26;100.00
71248;BME280;73325;51.138;6.950;2024-02-04T09:43:33;101778.00;;;11.26;100.00
71248;BME280;73325;51.138;6.950;2024-02-04T09:46:00;101780.00;;;11.26;100.00
71248;BME280;73325;51.138;6.950;2024-02-04T09:48:32;101781.00;;;11.27;100.00
71248;BME280;73325;51.138;6.950;2024-02-04T09:51:02;101781.00;;;11.26;100.00
71248;BME280;73325;51.138;6.950;2024-02-04T09:53:33;101783.00;;;11.26;100.00
71248;BME280;73325;51.138;6.950;2024-02-04T09:56:03;101782.00;;;11.26;100.00
71248;BME280;73325;51.138;6.950;2024-02-04T09:58:33;101781.00;;;11.27;100.00
71248;BME280;73325;51.138;6.950;2024-02-04T10:01:04;101778.00;;;11.28;100.00
71248;BME280;73325;51.138;6.950;2024-02-04T10:03:33;101777.00;;;11.29;100.00
71248;BME280;73325;51.138;6.950;2024-02-04T10:06:03;101778.00;;;11.31;100.00
71248;BME280;73325;51.138;6.950;2024-02-04T10:08:35;101777.00;;;11.32;100.00
71248;BME280;73325;51.138;6.950;2024-02-04T10:11:04;101775.00;;;11.34;100.00
71248;BME280;73325;51.138;6.950;2024-02-04T10:13:47;101772.00;;;11.37;100.00
71248;BME280;73325;51.138;6.950;2024-02-04T10:16:05;101772.00;;;11.40;100.00
71248;BME280;73325;51.138;6.950;2024-02-04T10:18:35;101773.00;;;11.43;100.00
71248;BME280;73325;51.138;6.950;2024-02-04T10:21:05;101773.00;;;11.47;100.00
71248;BME280;73325;51.138;6.950;2024-02-04T10:23:35;101774.00;;;11.49;100.00
71248;BME280;73325;51.138;6.950;2024-02-04T10:26:05;101775.00;;;11.50;100.00
71248;BME280;73325;51.138;6.950;2024-02-04T10:28:35;101773.00;;;11.51;100.00
71248;BME280;73325;51.138;6.950;2024-02-04T10:31:05;101774.00;;;11.52;100.00
71248;BME280;73325;51.138;6.950;2024-02-04T10:33:35;101773.00;;;11.53;100.00
71248;BME280;73325;51.138;6.950;2024-02-04T10:36:06;101772.00;;;11.54;100.00
71248;BME280;73325;51.138;6.950;2024-02-04T10:38:36;101775.00;;;11.54;100.00
71248;BME280;73325;51.138;6.950;2024-02-04T10:41:06;101775.00;;;11.54;100.00
71248;BME280;73325;51.138;6.950;2024-02-04T10:43:37;101774.00;;;11.53;100.00
71248;BME280;73325;51.138;6.950;2024-02-04T10:46:09;101773.00;;;11.52;100.00
71248;BME280;73325;51.138;6.950;2024-02-04T10:48:41;101772.00;;;11.51;100.00
71248;BME280;73325;51.138;6.950;2024-02-04T10:51:14;101771.00;;;11.52;100.00
71248;BME280;73325;51.138;6.950;2024-02-04T10:53:41;101769.00;;;11.53;100.00
71248;BME280;73325;51.138;6.950;2024-02-04T10:56:22;101769.00;;;11.53;100.00
71248;BME280;73325;51.138;6.950;2024-02-04T10:58:41;101769.00;;;11.53;100.00
71248;BME280;73325;51.138;6.950;2024-02-04T11:01:11;101770.00;;;11.53;100.00
71248;BME280;73325;51.138;6.950;2024-02-04T11:03:43;101772.00;;;11.54;100.00
71248;BME280;73325;51.138;6.950;2024-02-04T11:06:13;101770.00;;;11.54;100.00
71248;BME280;73325;51.138;6.950;2024-02-04T11:08:43;101770.00;;;11.54;100.00
71248;BME280;73325;51.138;6.950;2024-02-04T11:11:13;101769.00;;;11.53;100.00
71248;BME280;73325;51.138;6.950;2024-02-04T11:13:45;101766.00;;;11.52;100.00
71248;BME280;73325;51.138;6.950;2024-02-04T11:16:38;101764.00;;;11.51;100.00
71248;BME280;73325;51.138;6.950;2024-02-04T11:19:03;101763.00;;;11.51;100.00
71248;BME280;73325;51.138;6.950;2024-02-04T11:26:18;101752.00;;;11.51;100.00
71248;BME280;73325;51.138;6.950;2024-02-04T11:28:46;101750.00;;;11.52;100.00
71248;BME280;73325;51.138;6.950;2024-02-04T11:31:19;101747.00;;;11.54;100.00
71248;BME280;73325;51.138;6.950;2024-02-04T11:33:50;101744.00;;;11.57;100.00
71248;BME280;73325;51.138;6.950;2024-02-04T11:36:17;101740.00;;;11.59;100.00
71248;BME280;73325;51.138;6.950;2024-02-04T11:38:50;101736.00;;;11.62;100.00
71248;BME280;73325;51.138;6.950;2024-02-04T11:41:24;101732.00;;;11.64;100.00
71248;BME280;73325;51.138;6.950;2024-02-04T11:43:51;101728.00;;;11.65;100.00
71248;BME280;73325;51.138;6.950;2024-02-04T11:46:20;101726.00;;;11.67;100.00
71248;BME280;73325;51.138;6.950;2024-02-04T11:48:53;101724.00;;;11.68;100.00
71248;BME280;73325;51.138;6.950;2024-02-04T11:51:23;101722.00;;;11.70;100.00
71248;BME280;73325;51.138;6.950;2024-02-04T11:53:50;101719.00;;;11.72;100.00
71248;BME280;73325;51.138;6.950;2024-02-04T11:56:23;101716.00;;;11.73;100.00
71248;BME280;73325;51.138;6.950;2024-02-04T11:58:51;101713.00;;;11.73;100.00
71248;BME280;73325;51.138;6.950;2024-02-04T12:01:22;101711.00;;;11.73;100.00
71248;BME280;73325;51.138;6.950;2024-02-04T12:03:53;101706.00;;;11.72;100.00
71248;BME280;73325;51.138;6.950;2024-02-04T12:06:23;101705.00;;;11.71;100.00
71248;BME280;73325;51.138;6.950;2024-02-04T12:08:53;101704.00;;;11.70;100.00
71248;BME280;73325;51.138;6.950;2024-02-04T12:11:23;101705.00;;;11.69;100.00
71248;BME280;73325;51.138;6.950;2024-02-04T12:13:53;101703.00;;;11.68;100.00
71248;BME280;73325;51.138;6.950;2024-02-04T12:16:24;101700.00;;;11.68;100.00
71248;BME280;73325;51.138;6.950;2024-02-04T12:18:54;101699.00;;;11.67;100.00
71248;BME280;73325;51.138;6.950;2024-02-04T12:21:25;101700.00;;;11.66;100.00
71248;BME280;73325;51.138;6.950;2024-02-04T12:23:54;101700.00;;;11.65;100.00
71248;BME280;73325;51.138;6.950;2024-02-04T12:26:24;101698.00;;;11.65;100.00
71248;BME280;73325;51.138;6.950;2024-02-04T12:28:55;101698.00;;;11.65;100.00
71248;BME280;73325;51.138;6.950;2024-02-04T12:31:27;101698.00;;;11.65;100.00
71248;BME280;73325;51.138;6.950;2024-02-04T12:33:57;101695.00;;;11.66;100.00
71248;BME280;73325;51.138;6.950;2024-02-04T12:36:26;101693.00;;;11.66;100.00
71248;BME280;73325;51.138;6.950;2024-02-04T12:38:57;101690.00;;;11.66;100.00
71248;BME280;73325;51.138;6.950;2024-02-04T12:41:27;101686.00;;;11.66;100.00
71248;BME280;73325;51.138;6.950;2024-02-04T12:43:57;101685.00;;;11.66;100.00
71248;BME280;73325;51.138;6.950;2024-02-04T12:46:27;101682.00;;;11.67;100.00
71248;BME280;73325;51.138;6.950;2024-02-04T12:48:58;101679.00;;;11.67;100.00
71248;BME280;73325;51.138;6.950;2024-02-04T12:51:28;101675.00;;;11.68;100.00
71248;BME280;73325;51.138;6.950;2024-02-04T12:54:07;101672.00;;;11.68;100.00
71248;BME280;73325;51.138;6.950;2024-02-04T12:56:27;101670.00;;;11.68;100.00
71248;BME280;73325;51.138;6.950;2024-02-04T12:58:57;101668.00;;;11.68;100.00
71248;BME280;73325;51.138;6.950;2024-02-04T13:01:27;101668.00;;;11.68;100.00